All Spectrum Aviation - Van Nuys Airport - KVNY

HOME

Van Nuys Tower Recordings

Condor Squadron KVNY Webcam

Visit our Electronics Store

Condor Squadron Webcam - Van Nuys Airport - KVNY
Picture taken: Sat, 03 Dec 2016 11:34:29 -0800
YouTube Channel!    Latest Timelapse Movie    Full Size Image    Regular Size Image    

2016/12/03 18:51 KVNY 031851Z 00000KT 10SM CLR 17/M12 A3011 RMK AO2 SLP191 T01671122

HOME

Van Nuys Tower Recordings

Condor Squadron KVNY Webcam

Visit our Electronics Store